SKCG/CTG METAR and TAF weather

Enter ICAO airport designator
Station Type Date Time Source
SKCG METAR 2023/01/30 20:00 UTC NOAA

SKCG 302000Z 02006KT 340V060 CAVOK 25/22 Q1009 RMK A2981


Station Type Date Time Source
SKCG Decoded METAR 2023/01/30 20:00 UTC NOAA

Cartagena / Rafael Nunez, Colombia (SKCG) 10-27N 075-31W 12M
Jan 30, 2023 - 03:00 PM EST / 2023.01.30 2000 UTC
Wind: from the NNE (020 degrees) at 7 MPH (6 KT) (direction variable):0
Visibility: greater than 7 mile(s):0
Temperature: 77 F (25 C)
Dew Point: 71 F (22 C)
Relative Humidity: 83%
Pressure (altimeter): 29.80 in. Hg (1009 hPa)
ob: SKCG 302000Z 02006KT 340V060 CAVOK 25/22 Q1009 RMK A2981
cycle: 20

Station Type Date Time Source
SKCG TAF 2023/01/30 12:30 UTC NOAA

TAF SKCG 301030Z 3012/3112 09010KT 9999 FEW018
BECMG 3018/3020 35015KT
BECMG 3105/3107 07005KT TX32/3017Z TN23/3110Z

Example: see airport list